Time;durP1;ratioP1;P1;durP2;ratioP2;P2;SDS_P1;SDS_P2;PMS_P1;PMS_P2;Temp;Humidity;BMP_temperature;BMP_pressure;BME280_temperature;BME280_humidity;BME280_pressure;Samples;Min_cycle;Max_cycle;Signal;HPM_P1;HPM_P2
2022/11/08 00:01:40;;;;;;;4.97;1.60;;;13.90;83.10;;;;;;4898917;29;20096;-78
2022/11/08 00:04:11;;;;;;;6.38;1.52;;;13.90;83.20;;;;;;4882030;29;20424;-78
2022/11/08 00:14:51;;;;;;;5.55;1.77;;;13.80;83.30;;;;;;4898781;29;20036;-77
2022/11/08 00:17:19;;;;;;;7.57;1.63;;;13.80;83.40;;;;;;4898891;29;20144;-78
2022/11/08 00:19:45;;;;;;;6.22;1.58;;;13.80;83.40;;;;;;4898556;29;20103;-78
2022/11/08 00:22:12;;;;;;;4.63;1.58;;;13.80;83.50;;;;;;4881653;29;20131;-78
2022/11/08 00:24:38;;;;;;;3.58;1.50;;;13.80;83.50;;;;;;4881542;29;20028;-77
2022/11/08 00:27:06;;;;;;;4.72;1.67;;;13.80;83.50;;;;;;4881555;29;20032;-78
2022/11/08 00:29:35;;;;;;;7.05;1.88;;;13.80;83.60;;;;;;4881567;29;20033;-78
2022/11/08 00:32:08;;;;;;;6.60;1.50;;;13.70;83.60;;;;;;4880909;29;20048;-78
2022/11/08 00:34:34;;;;;;;4.63;1.38;;;13.70;83.60;;;;;;4898614;29;20051;-78
2022/11/08 00:37:00;;;;;;;3.88;1.48;;;13.70;83.60;;;;;;4881367;29;20543;-77
2022/11/08 00:39:26;;;;;;;8.45;1.63;;;13.60;83.70;;;;;;4898309;29;20088;-78
2022/11/08 00:41:55;;;;;;;7.65;1.80;;;13.60;83.80;;;;;;4881204;29;20032;-78
2022/11/08 00:44:21;;;;;;;4.25;1.60;;;13.60;83.90;;;;;;4898146;29;20029;-77
2022/11/08 00:46:47;;;;;;;5.95;1.92;;;13.50;83.90;;;;;;4898061;29;20076;-78
2022/11/08 00:49:12;;;;;;;4.78;1.38;;;13.50;84.10;;;;;;4881175;29;20119;-78
2022/11/08 00:51:38;;;;;;;5.30;1.70;;;13.40;84.10;;;;;;4898027;29;20460;-78
2022/11/08 00:54:05;;;;;;;6.05;1.83;;;13.40;84.20;;;;;;4898065;29;20036;-79
2022/11/08 00:56:32;;;;;;;7.07;1.80;;;13.40;84.30;;;;;;4895201;29;20032;-78
2022/11/08 00:58:58;;;;;;;5.20;1.60;;;13.30;84.40;;;;;;4881098;29;20413;-78
2022/11/08 01:01:24;;;;;;;3.72;1.48;;;13.30;84.40;;;;;;4880684;29;20477;-78
2022/11/08 01:03:50;;;;;;;5.15;2.13;;;13.30;84.50;;;;;;4881108;29;20027;-78
2022/11/08 01:06:18;;;;;;;4.45;1.70;;;13.30;84.50;;;;;;4881000;29;20035;-78
2022/11/08 01:08:45;;;;;;;4.28;1.48;;;13.30;84.60;;;;;;4897548;29;20131;-78
2022/11/08 01:11:17;;;;;;;6.75;2.10;;;13.20;84.60;;;;;;4880888;29;20145;-78
2022/11/08 01:13:43;;;;;;;6.43;1.60;;;13.20;84.80;;;;;;4880926;29;20507;-78
2022/11/08 01:16:15;;;;;;;9.38;1.60;;;13.20;84.80;;;;;;4881225;29;20511;-78
2022/11/08 01:18:41;;;;;;;5.28;1.65;;;13.20;84.80;;;;;;4897700;29;20059;-78
2022/11/08 01:21:09;;;;;;;7.50;1.98;;;13.10;85.00;;;;;;4880731;29;20433;-78
2022/11/08 01:23:34;;;;;;;4.15;1.50;;;13.10;85.00;;;;;;4880813;29;20112;-79
2022/11/08 01:26:05;;;;;;;4.78;1.73;;;13.10;85.00;;;;;;4897752;29;20441;-78
2022/11/08 01:28:35;;;;;;;3.35;1.60;;;13.10;85.10;;;;;;4880558;29;20542;-78
2022/11/08 01:31:06;;;;;;;4.88;1.60;;;13.10;85.10;;;;;;4880569;29;20025;-79
2022/11/08 01:33:32;;;;;;;7.40;1.63;;;13.10;85.20;;;;;;4880627;29;20480;-78
2022/11/08 01:35:58;;;;;;;5.38;1.60;;;13.10;85.80;;;;;;4880648;29;20056;-78
2022/11/08 01:38:24;;;;;;;5.70;1.83;;;13.10;85.20;;;;;;4897395;29;20111;-78
2022/11/08 01:40:49;;;;;;;4.15;1.92;;;13.00;85.20;;;;;;4897108;29;20032;-78
2022/11/08 01:43:30;;;;;;;5.82;1.83;;;13.00;85.20;;;;;;4879451;29;20124;-78
2022/11/08 01:46:28;;;;;;;4.07;1.40;;;13.00;85.30;;;;;;4897107;29;20093;-78
2022/11/08 01:49:06;;;;;;;5.53;1.55;;;13.00;85.40;;;;;;4872251;29;20060;-78
2022/11/08 01:51:46;;;;;;;5.25;1.50;;;13.00;85.40;;;;;;4897080;29;20032;-77
2022/11/08 01:54:23;;;;;;;4.25;1.73;;;13.00;85.40;;;;;;4897048;29;20482;-77
2022/11/08 01:56:49;;;;;;;5.80;1.67;;;12.90;85.50;;;;;;4880239;29;20035;-77
2022/11/08 01:59:17;;;;;;;3.72;1.50;;;12.90;85.50;;;;;;4896939;29;20032;-77
2022/11/08 02:01:43;;;;;;;5.03;1.52;;;12.90;85.60;;;;;;4880596;29;20525;-76
2022/11/08 02:04:09;;;;;;;6.82;1.70;;;12.90;85.60;;;;;;4897404;29;21161;-76
2022/11/08 02:06:37;;;;;;;4.60;1.92;;;12.90;85.70;;;;;;4880827;29;20028;-75
2022/11/08 02:09:09;;;;;;;5.65;1.67;;;12.90;85.70;;;;;;4880405;29;20052;-76
2022/11/08 02:11:35;;;;;;;3.80;1.52;;;12.80;85.70;;;;;;4897613;29;20029;-75
2022/11/08 02:14:03;;;;;;;4.03;1.40;;;12.90;85.80;;;;;;4897295;29;20116;-75
2022/11/08 02:16:28;;;;;;;4.35;1.60;;;12.90;85.80;;;;;;4898015;29;20477;-75
2022/11/08 02:18:54;;;;;;;4.82;1.48;;;12.90;85.80;;;;;;4892135;29;20052;-76
2022/11/08 02:21:45;;;;;;;4.40;1.60;;;12.90;85.80;;;;;;4897817;29;20064;-76
2022/11/08 02:24:13;;;;;;;7.03;1.73;;;12.90;85.80;;;;;;4880863;29;20036;-75
2022/11/08 02:26:39;;;;;;;3.78;1.40;;;12.90;85.80;;;;;;4897765;29;20403;-75
2022/11/08 02:29:31;;;;;;;4.28;1.58;;;12.80;85.80;;;;;;4882893;29;20043;-75
2022/11/08 02:31:58;;;;;;;4.25;1.50;;;12.80;85.80;;;;;;4881881;29;20021;-75
2022/11/08 02:34:32;;;;;;;5.18;1.60;;;12.80;85.90;;;;;;4882290;29;20024;-76
2022/11/08 02:36:59;;;;;;;4.93;1.52;;;12.70;86.70;;;;;;4897825;29;20036;-75
2022/11/08 02:39:25;;;;;;;5.13;1.60;;;12.70;86.20;;;;;;4883551;29;20025;-75
2022/11/08 02:41:51;;;;;;;5.10;1.58;;;12.70;86.20;;;;;;4901629;29;20059;-76
2022/11/08 02:44:17;;;;;;;5.88;1.55;;;12.60;86.10;;;;;;4901919;29;20035;-76
2022/11/08 02:46:42;;;;;;;3.83;1.45;;;12.60;86.30;;;;;;4884137;29;20024;-76
2022/11/08 02:49:08;;;;;;;4.70;1.70;;;12.60;86.40;;;;;;4901713;29;20036;-76
2022/11/08 02:51:33;;;;;;;5.22;1.70;;;12.60;86.40;;;;;;4902236;29;20108;-76
2022/11/08 02:53:59;;;;;;;3.83;1.80;;;12.60;86.80;;;;;;4892127;29;20044;-76
2022/11/08 02:56:25;;;;;;;3.97;1.52;;;12.50;86.70;;;;;;4918234;29;20028;-76
2022/11/08 02:58:50;;;;;;;6.20;1.70;;;12.50;86.60;;;;;;4901475;29;20017;-76
2022/11/08 03:01:16;;;;;;;6.25;1.70;;;12.50;86.70;;;;;;4918496;29;20036;-76
2022/11/08 03:03:41;;;;;;;4.10;1.60;;;12.50;86.70;;;;;;4902111;29;20481;-75
2022/11/08 03:06:07;;;;;;;4.95;1.77;;;12.50;86.70;;;;;;4902886;29;20524;-75
2022/11/08 03:08:32;;;;;;;4.95;1.40;;;12.50;86.70;;;;;;4921084;29;20068;-76
2022/11/08 03:10:59;;;;;;;4.22;1.73;;;12.50;86.80;;;;;;4904521;29;20029;-77
2022/11/08 03:13:24;;;;;;;6.63;1.65;;;12.50;86.80;;;;;;4921914;29;20515;-76
2022/11/08 03:15:50;;;;;;;4.25;1.60;;;12.50;86.90;;;;;;4904910;29;20053;-75
2022/11/08 03:18:16;;;;;;;3.72;1.50;;;12.40;86.80;;;;;;4921915;29;20048;-76
2022/11/08 03:20:41;;;;;;;4.63;1.60;;;12.40;86.80;;;;;;4891346;29;20051;-76
2022/11/08 03:23:07;;;;;;;5.88;1.70;;;12.40;86.70;;;;;;4907510;29;20025;-76
2022/11/08 03:25:34;;;;;;;4.40;1.60;;;12.40;86.80;;;;;;4890265;29;20024;-76
2022/11/08 03:28:04;;;;;;;3.72;1.60;;;12.40;86.70;;;;;;4888961;29;20025;-75
2022/11/08 03:30:30;;;;;;;3.55;1.70;;;12.40;86.80;;;;;;4905423;29;20021;-76
2022/11/08 03:32:56;;;;;;;3.72;1.60;;;12.40;86.80;;;;;;4905242;29;20051;-75
2022/11/08 03:35:22;;;;;;;6.20;1.60;;;12.40;86.70;;;;;;4888996;29;20040;-75
2022/11/08 03:37:52;;;;;;;3.80;1.70;;;12.30;86.70;;;;;;4887782;29;20119;-75
2022/11/08 03:40:19;;;;;;;7.53;1.85;;;12.30;86.80;;;;;;4903740;29;20032;-76
2022/11/08 03:42:44;;;;;;;4.13;1.70;;;12.40;86.90;;;;;;4886089;29;20032;-75
2022/11/08 03:45:11;;;;;;;3.90;1.40;;;12.30;86.90;;;;;;4901480;29;20029;-75
2022/11/08 03:47:44;;;;;;;5.93;1.70;;;12.40;87.00;;;;;;4901218;29;20112;-75
2022/11/08 03:50:11;;;;;;;4.18;1.77;;;12.30;86.90;;;;;;4900918;29;20450;-75
2022/11/08 03:52:46;;;;;;;4.43;1.42;;;12.30;86.90;;;;;;4899791;29;20020;-76
2022/11/08 03:55:12;;;;;;;4.55;1.60;;;12.30;87.00;;;;;;4882853;29;20436;-76
2022/11/08 03:57:43;;;;;;;4.97;1.70;;;12.30;87.00;;;;;;4882789;29;20056;-76
2022/11/08 04:03:30;;;;;;;3.67;1.55;;;12.30;87.00;;;;;;4899551;29;20163;-75
2022/11/08 04:05:59;;;;;;;2.35;1.20;;;12.30;87.10;;;;;;4898509;29;20024;-76
2022/11/08 04:08:24;;;;;;;4.35;1.55;;;12.30;87.00;;;;;;4899025;29;20071;-76
2022/11/08 04:10:54;;;;;;;4.93;1.50;;;12.30;87.00;;;;;;4881989;29;20107;-76
2022/11/08 04:16:07;;;;;;;6.20;1.40;;;12.20;87.20;;;;;;4899342;29;20119;-76
2022/11/08 04:21:18;;;;;;;3.13;1.50;;;12.20;87.30;;;;;;4899093;29;20099;-76
2022/11/08 04:23:46;;;;;;;4.15;1.35;;;12.20;87.30;;;;;;4882042;29;20029;-75
2022/11/08 04:26:12;;;;;;;4.93;1.30;;;12.20;87.30;;;;;;4898937;29;20039;-75
2022/11/08 04:28:39;;;;;;;3.17;1.20;;;12.10;87.20;;;;;;4881840;29;20029;-75
2022/11/08 04:31:10;;;;;;;2.85;1.17;;;12.10;87.30;;;;;;4881694;29;20036;-76
2022/11/08 04:33:35;;;;;;;4.80;1.42;;;12.10;87.30;;;;;;4898666;29;20068;-75
2022/11/08 04:36:04;;;;;;;3.22;1.23;;;12.10;87.30;;;;;;4881943;29;20032;-76
2022/11/08 04:38:31;;;;;;;4.97;1.50;;;12.10;87.30;;;;;;4881780;29;20116;-75
2022/11/08 04:41:13;;;;;;;3.22;1.38;;;12.10;87.90;;;;;;4898632;29;20064;-75
2022/11/08 04:43:39;;;;;;;2.75;1.30;;;12.00;87.70;;;;;;4898449;29;20033;-75
2022/11/08 04:46:08;;;;;;;2.15;1.10;;;12.10;88.00;;;;;;4898375;29;20055;-75
2022/11/08 04:48:34;;;;;;;2.00;1.10;;;12.10;87.70;;;;;;4898066;29;20032;-76
2022/11/08 04:51:05;;;;;;;6.38;1.58;;;12.00;87.60;;;;;;4898324;29;20115;-76
2022/11/08 04:53:31;;;;;;;4.53;1.25;;;12.10;87.50;;;;;;4881297;29;20123;-76
2022/11/08 04:56:03;;;;;;;3.55;1.30;;;12.10;87.60;;;;;;4881262;29;20035;-75
2022/11/08 04:58:36;;;;;;;4.43;1.35;;;12.10;87.80;;;;;;4881400;29;20036;-75
2022/11/08 05:01:03;;;;;;;3.58;1.10;;;12.10;87.60;;;;;;4881367;29;20463;-75
2022/11/08 05:03:30;;;;;;;2.60;1.13;;;12.10;87.30;;;;;;4897873;29;20036;-75
2022/11/08 05:06:06;;;;;;;2.55;1.25;;;12.10;87.40;;;;;;4897900;29;20040;-76
2022/11/08 05:08:31;;;;;;;3.97;1.33;;;12.10;87.40;;;;;;4881129;29;20044;-76
2022/11/08 05:11:06;;;;;;;2.20;1.20;;;12.10;87.40;;;;;;4880808;29;20066;-74
2022/11/08 05:13:33;;;;;;;3.55;1.25;;;12.00;87.20;;;;;;4897953;29;20194;-76
2022/11/08 05:16:02;;;;;;;2.33;1.15;;;12.00;87.10;;;;;;4881387;29;20037;-75
2022/11/08 05:18:29;;;;;;;2.28;0.98;;;12.00;87.30;;;;;;4897649;29;20040;-76
2022/11/08 05:23:41;;;;;;;2.63;1.23;;;12.00;87.90;;;;;;4897683;29;20072;-76
2022/11/08 05:26:07;;;;;;;4.30;1.30;;;12.00;87.90;;;;;;4897828;29;20064;-76
2022/11/08 05:28:32;;;;;;;3.42;1.48;;;12.00;87.90;;;;;;4897666;29;20103;-75
2022/11/08 05:30:58;;;;;;;3.17;1.40;;;12.00;87.80;;;;;;4892951;29;20516;-76
2022/11/08 05:33:24;;;;;;;4.90;1.30;;;12.00;87.70;;;;;;4880702;29;20084;-77
2022/11/08 05:35:51;;;;;;;2.70;1.40;;;11.90;87.60;;;;;;4880735;29;20528;-76
2022/11/08 05:38:16;;;;;;;3.70;1.63;;;11.90;87.60;;;;;;4897453;29;20036;-75
2022/11/08 05:40:42;;;;;;;3.45;1.60;;;12.00;87.60;;;;;;4897315;29;20040;-76
2022/11/08 05:43:08;;;;;;;2.55;1.23;;;11.90;87.50;;;;;;4880572;29;20120;-75
2022/11/08 05:45:34;;;;;;;3.80;1.38;;;11.90;87.40;;;;;;4897116;29;20083;-76
2022/11/08 05:48:02;;;;;;;2.20;1.10;;;11.90;87.50;;;;;;4897215;29;20100;-76
2022/11/08 05:50:29;;;;;;;3.30;1.60;;;11.90;87.40;;;;;;4880303;29;20028;-76
2022/11/08 05:52:55;;;;;;;3.30;1.40;;;11.90;87.30;;;;;;4897257;29;20109;-76
2022/11/08 05:55:20;;;;;;;4.40;1.40;;;11.90;87.30;;;;;;4897201;29;20469;-76
2022/11/08 05:57:46;;;;;;;2.80;1.50;;;11.90;87.10;;;;;;4897140;29;20024;-76
2022/11/08 06:00:12;;;;;;;3.15;1.23;;;11.90;87.00;;;;;;4897193;29;20040;-77
2022/11/08 06:02:38;;;;;;;5.00;1.80;;;11.90;86.90;;;;;;4880083;29;20024;-76
2022/11/08 06:05:05;;;;;;;4.25;1.42;;;11.90;86.90;;;;;;4880340;29;20032;-76
2022/11/08 06:07:30;;;;;;;3.15;1.33;;;11.80;86.90;;;;;;4897199;29;20033;-76
2022/11/08 06:09:56;;;;;;;2.97;1.60;;;11.80;86.80;;;;;;4896922;29;20063;-75
2022/11/08 06:12:22;;;;;;;4.03;1.50;;;11.80;86.70;;;;;;4896899;29;20123;-75
2022/11/08 06:14:47;;;;;;;3.25;1.52;;;11.80;86.60;;;;;;4896958;29;20393;-75
2022/11/08 06:17:13;;;;;;;3.72;1.58;;;11.80;86.60;;;;;;4879945;29;20059;-75
2022/11/08 06:19:38;;;;;;;3.65;1.55;;;11.80;86.90;;;;;;4896902;29;20037;-75
2022/11/08 06:22:04;;;;;;;1.55;1.35;;;11.80;86.90;;;;;;4896426;29;20096;-75
2022/11/08 06:24:30;;;;;;;3.17;1.55;;;11.90;87.20;;;;;;4896786;29;20067;-75
2022/11/08 06:26:56;;;;;;;2.70;1.50;;;11.80;87.50;;;;;;4879686;29;20032;-75
2022/11/08 06:29:22;;;;;;;3.08;1.45;;;11.90;87.50;;;;;;4898518;29;20033;-75
2022/11/08 06:31:48;;;;;;;3.20;1.48;;;11.90;87.30;;;;;;4885989;29;20144;-75
2022/11/08 06:34:13;;;;;;;3.78;1.60;;;11.90;87.80;;;;;;4902928;29;20044;-75
2022/11/08 06:36:39;;;;;;;3.97;1.65;;;11.80;87.00;;;;;;4886181;29;20073;-77
2022/11/08 06:39:05;;;;;;;2.75;1.30;;;11.90;87.00;;;;;;4902879;29;20370;-76
2022/11/08 06:41:31;;;;;;;5.13;1.60;;;11.90;86.80;;;;;;4902586;29;20040;-76
2022/11/08 06:43:57;;;;;;;2.90;1.30;;;11.90;87.10;;;;;;4885839;29;20123;-76
2022/11/08 06:46:23;;;;;;;2.78;1.40;;;11.90;87.30;;;;;;4886096;29;20081;-75
2022/11/08 06:48:49;;;;;;;2.60;1.70;;;11.90;87.10;;;;;;4902768;29;20489;-76
2022/11/08 06:51:15;;;;;;;2.00;1.60;;;11.90;86.90;;;;;;4902877;29;20036;-77
2022/11/08 06:53:41;;;;;;;3.53;1.60;;;12.00;86.90;;;;;;4902986;29;20037;-77
2022/11/08 06:56:07;;;;;;;2.38;1.40;;;11.90;86.80;;;;;;4902834;29;20052;-76
2022/11/08 06:58:32;;;;;;;4.65;1.65;;;11.90;86.70;;;;;;4902718;29;20396;-76
2022/11/08 07:01:02;;;;;;;3.35;1.50;;;11.90;86.70;;;;;;4885488;29;20493;-75
2022/11/08 07:03:29;;;;;;;2.78;1.48;;;11.90;86.60;;;;;;4899698;29;20048;-76
2022/11/08 07:05:55;;;;;;;6.53;2.15;;;11.90;86.50;;;;;;4885887;29;20473;-76
2022/11/08 07:08:20;;;;;;;3.65;1.67;;;12.00;86.50;;;;;;4886141;29;20036;-76
2022/11/08 07:10:46;;;;;;;3.53;1.70;;;12.00;86.40;;;;;;4885713;29;20040;-76
2022/11/08 07:13:13;;;;;;;2.17;1.63;;;12.00;86.30;;;;;;4885931;29;20537;-77
2022/11/08 07:15:40;;;;;;;3.40;1.60;;;12.00;86.50;;;;;;4885792;29;20037;-76
2022/11/08 07:18:11;;;;;;;3.53;1.55;;;12.00;86.60;;;;;;4885787;29;20481;-75
2022/11/08 07:20:37;;;;;;;2.72;1.70;;;12.00;86.60;;;;;;4899669;29;20429;-76
2022/11/08 07:23:04;;;;;;;3.92;1.40;;;12.00;86.50;;;;;;4885893;29;20029;-75
2022/11/08 07:25:30;;;;;;;2.92;1.45;;;12.00;86.30;;;;;;4902727;29;20036;-75
2022/11/08 07:27:58;;;;;;;4.40;1.70;;;12.00;86.20;;;;;;4902495;29;20029;-76
2022/11/08 07:30:24;;;;;;;3.00;1.70;;;12.00;86.20;;;;;;4885904;29;20033;-76
2022/11/08 07:32:50;;;;;;;2.38;1.77;;;12.00;86.20;;;;;;4899578;29;20476;-77
2022/11/08 07:35:16;;;;;;;2.33;1.30;;;12.00;86.10;;;;;;4885450;29;20028;-76
2022/11/08 07:37:41;;;;;;;4.20;1.80;;;12.00;86.00;;;;;;4902424;29;20052;-75
2022/11/08 07:40:08;;;;;;;2.63;1.65;;;12.00;85.90;;;;;;4902136;29;20043;-75
2022/11/08 07:42:38;;;;;;;4.15;1.42;;;12.00;85.90;;;;;;4882484;29;20032;-77
2022/11/08 07:45:05;;;;;;;4.22;1.80;;;12.10;86.00;;;;;;4899319;29;20029;-75
2022/11/08 07:47:30;;;;;;;2.35;1.50;;;12.10;85.80;;;;;;4896254;29;20511;-75
2022/11/08 07:49:56;;;;;;;2.60;1.42;;;12.10;85.80;;;;;;4882220;29;20025;-75
2022/11/08 07:52:22;;;;;;;5.88;1.70;;;12.10;85.80;;;;;;4882475;29;20032;-76
2022/11/08 07:54:47;;;;;;;2.75;1.50;;;12.20;85.70;;;;;;4882234;29;20189;-75
2022/11/08 07:57:13;;;;;;;3.05;1.42;;;12.20;85.50;;;;;;4882286;29;20064;-76
2022/11/08 07:59:39;;;;;;;3.67;1.50;;;12.20;85.30;;;;;;4896314;29;20500;-76
2022/11/08 08:02:05;;;;;;;2.88;1.65;;;12.30;85.20;;;;;;4881980;29;20043;-76
2022/11/08 08:04:32;;;;;;;4.05;1.25;;;12.30;84.90;;;;;;4898854;29;20493;-77
2022/11/08 08:06:58;;;;;;;2.63;1.48;;;12.30;84.80;;;;;;4881951;29;20039;-78
2022/11/08 08:09:23;;;;;;;2.10;1.30;;;12.40;84.70;;;;;;4881637;29;20032;-75
2022/11/08 08:11:49;;;;;;;2.80;1.13;;;12.40;84.60;;;;;;4881935;29;20410;-76
2022/11/08 08:14:15;;;;;;;3.00;1.60;;;12.50;84.60;;;;;;4898758;29;20032;-76
2022/11/08 08:16:40;;;;;;;1.67;1.33;;;12.50;84.60;;;;;;4881698;29;20115;-75
2022/11/08 08:19:06;;;;;;;2.88;1.40;;;12.60;84.70;;;;;;4898464;29;20033;-75
2022/11/08 08:21:31;;;;;;;3.80;1.40;;;12.60;84.60;;;;;;4898485;29;20135;-75
2022/11/08 08:23:57;;;;;;;1.90;1.17;;;12.70;84.70;;;;;;4881925;29;20092;-75
2022/11/08 08:26:23;;;;;;;3.00;1.30;;;12.70;84.60;;;;;;4898658;29;20059;-74
2022/11/08 08:28:48;;;;;;;3.17;1.35;;;12.70;84.30;;;;;;4898729;29;20430;-75
2022/11/08 08:31:14;;;;;;;2.00;1.20;;;12.70;84.50;;;;;;4881460;29;20035;-75
2022/11/08 08:33:39;;;;;;;1.63;1.30;;;12.80;84.20;;;;;;4881451;29;20085;-75
2022/11/08 08:36:05;;;;;;;2.08;1.13;;;12.90;84.00;;;;;;4881321;29;20122;-74
2022/11/08 08:38:32;;;;;;;2.83;1.10;;;13.00;83.90;;;;;;4898153;29;20048;-75
2022/11/08 08:40:59;;;;;;;2.50;1.42;;;13.00;84.10;;;;;;4858203;29;20037;-76
2022/11/08 08:43:26;;;;;;;3.78;1.40;;;13.10;83.90;;;;;;4858221;29;20038;-75
2022/11/08 08:45:53;;;;;;;1.55;0.95;;;13.20;83.70;;;;;;4858371;29;20086;-74
2022/11/08 08:48:19;;;;;;;1.60;1.10;;;13.20;83.30;;;;;;4858245;29;20525;-75
2022/11/08 08:50:45;;;;;;;2.30;1.17;;;13.30;83.00;;;;;;4858411;29;20042;-76
2022/11/08 08:53:10;;;;;;;1.92;1.20;;;13.40;82.80;;;;;;4858035;29;20056;-76
2022/11/08 08:55:41;;;;;;;2.40;1.20;;;13.40;82.70;;;;;;4858130;29;20044;-75
2022/11/08 08:58:08;;;;;;;2.03;1.02;;;13.50;82.30;;;;;;4856439;29;20541;-76
2022/11/08 09:00:34;;;;;;;1.00;0.90;;;13.60;82.20;;;;;;4858314;29;20074;-76
2022/11/08 09:03:04;;;;;;;2.83;1.10;;;13.60;81.90;;;;;;4858008;29;20064;-76
2022/11/08 09:05:30;;;;;;;2.88;1.10;;;13.70;81.40;;;;;;4840423;29;20631;-76
2022/11/08 09:07:56;;;;;;;4.13;1.52;;;13.80;81.40;;;;;;4858311;29;20103;-76
2022/11/08 09:10:22;;;;;;;1.85;1.23;;;13.80;81.10;;;;;;4858258;29;20136;-76
2022/11/08 09:12:49;;;;;;;2.47;1.33;;;13.80;81.20;;;;;;4889375;29;20055;-75
2022/11/08 09:15:15;;;;;;;1.85;1.10;;;13.90;80.30;;;;;;4880930;29;20032;-76
2022/11/08 09:17:41;;;;;;;1.67;1.20;;;13.90;80.10;;;;;;4880838;29;20043;-76
2022/11/08 09:20:09;;;;;;;2.65;1.55;;;13.90;79.80;;;;;;4897138;29;20037;-75
2022/11/08 09:22:35;;;;;;;2.15;1.10;;;13.90;79.90;;;;;;4878093;29;20052;-76
2022/11/08 09:25:01;;;;;;;2.97;1.20;;;13.90;79.80;;;;;;4897536;29;20488;-74
2022/11/08 09:27:29;;;;;;;3.58;1.45;;;14.00;79.70;;;;;;4897630;29;20080;-76
2022/11/08 09:29:56;;;;;;;2.70;1.20;;;14.00;80.10;;;;;;4880751;29;20032;-76
2022/11/08 09:32:23;;;;;;;1.67;1.05;;;14.00;80.00;;;;;;4880589;29;20480;-76
2022/11/08 09:34:50;;;;;;;1.60;1.20;;;14.00;79.80;;;;;;4880634;29;20029;-76
2022/11/08 09:37:16;;;;;;;2.35;1.20;;;14.10;79.50;;;;;;4877936;29;20040;-77
2022/11/08 09:39:45;;;;;;;2.17;1.20;;;14.10;79.20;;;;;;4880631;29;20024;-76
2022/11/08 09:42:52;;;;;;;2.90;0.95;;;14.20;79.00;;;;;;4897135;29;20037;-76
2022/11/08 09:45:30;;;;;;;2.15;1.10;;;14.20;78.70;;;;;;4897143;29;20035;-77
2022/11/08 09:48:06;;;;;;;2.38;1.20;;;14.30;78.90;;;;;;4880493;29;20470;-76
2022/11/08 09:50:40;;;;;;;1.15;1.00;;;14.30;78.40;;;;;;4897224;29;20067;-76
2022/11/08 09:53:11;;;;;;;3.35;1.38;;;14.40;78.20;;;;;;4880336;29;20034;-76
2022/11/08 09:56:04;;;;;;;2.22;1.27;;;14.40;78.10;;;;;;4894080;29;20545;-78
2022/11/08 09:58:35;;;;;;;1.48;1.30;;;14.40;77.90;;;;;;4896387;29;20044;-77
2022/11/08 10:01:01;;;;;;;2.53;1.02;;;14.40;77.70;;;;;;4880268;29;20040;-76
2022/11/08 10:03:29;;;;;;;0.95;0.95;;;14.50;77.70;;;;;;4896733;29;20029;-76
2022/11/08 10:06:31;;;;;;;0.98;0.90;;;14.50;77.90;;;;;;4877125;29;20085;-76
2022/11/08 10:09:37;;;;;;;2.33;1.20;;;14.60;77.80;;;;;;4896889;29;20032;-76
2022/11/08 10:12:27;;;;;;;1.33;1.10;;;14.60;77.70;;;;;;4896916;29;20041;-77
2022/11/08 10:15:18;;;;;;;2.15;1.30;;;14.60;77.40;;;;;;4896991;29;20032;-75
2022/11/08 10:18:21;;;;;;;3.20;1.33;;;14.60;77.10;;;;;;4879950;29;20029;-77
2022/11/08 10:21:20;;;;;;;1.90;1.20;;;14.60;76.90;;;;;;4896673;29;20027;-78
2022/11/08 10:24:15;;;;;;;2.33;1.25;;;14.70;76.70;;;;;;4879867;29;20032;-76
2022/11/08 10:26:45;;;;;;;2.70;1.20;;;14.70;76.60;;;;;;4872507;29;20032;-78
2022/11/08 10:29:19;;;;;;;1.60;1.27;;;14.70;76.50;;;;;;4894299;29;20431;-76
2022/11/08 10:31:47;;;;;;;2.35;1.30;;;14.80;76.30;;;;;;4879833;29;20077;-76
2022/11/08 10:34:25;;;;;;;2.45;1.50;;;14.80;76.00;;;;;;4879578;29;20025;-75
2022/11/08 10:36:56;;;;;;;2.70;1.40;;;14.90;76.10;;;;;;4879966;29;20020;-77
2022/11/08 10:39:31;;;;;;;2.40;1.40;;;14.80;76.00;;;;;;4879910;29;20036;-76
2022/11/08 10:42:33;;;;;;;3.65;1.13;;;14.90;75.90;;;;;;4879745;29;20020;-77
2022/11/08 10:44:59;;;;;;;2.08;1.00;;;14.90;75.60;;;;;;4879380;29;20420;-77
2022/11/08 10:47:28;;;;;;;2.25;1.20;;;15.00;76.10;;;;;;4896465;29;20025;-77
2022/11/08 10:49:54;;;;;;;1.20;1.10;;;15.00;76.00;;;;;;4893551;29;20064;-76
2022/11/08 10:52:39;;;;;;;2.85;1.05;;;15.10;75.80;;;;;;4875390;29;20457;-77
2022/11/08 10:55:10;;;;;;;4.65;1.20;;;15.10;75.10;;;;;;4857691;29;20058;-76
2022/11/08 10:57:43;;;;;;;1.90;1.20;;;15.10;75.10;;;;;;4859839;29;20535;-75
2022/11/08 11:00:22;;;;;;;2.75;1.20;;;15.10;74.80;;;;;;4872718;29;20522;-76
2022/11/08 11:02:50;;;;;;;1.52;1.20;;;15.10;74.80;;;;;;4859746;29;20468;-75
2022/11/08 11:05:20;;;;;;;2.78;1.60;;;15.10;74.80;;;;;;4872927;29;20033;-75
2022/11/08 11:07:52;;;;;;;2.22;1.30;;;15.10;74.80;;;;;;4860007;29;20044;-76
2022/11/08 11:10:31;;;;;;;2.08;1.30;;;15.10;74.80;;;;;;4859614;29;20135;-75
2022/11/08 11:13:03;;;;;;;1.80;1.10;;;15.00;74.50;;;;;;4875291;29;20097;-75
2022/11/08 11:15:38;;;;;;;2.88;1.30;;;15.00;74.40;;;;;;4876064;29;20600;-75
2022/11/08 11:18:15;;;;;;;2.17;1.33;;;15.00;74.60;;;;;;4878787;29;20041;-76
2022/11/08 11:20:41;;;;;;;4.40;1.45;;;15.10;74.80;;;;;;4863343;29;20033;-75
2022/11/08 11:23:10;;;;;;;2.80;1.30;;;15.10;74.80;;;;;;4871099;29;20035;-77
2022/11/08 11:25:35;;;;;;;1.80;1.20;;;15.10;74.60;;;;;;4882795;29;20032;-76
2022/11/08 11:28:02;;;;;;;3.40;1.20;;;15.10;74.50;;;;;;4882649;29;20035;-75
2022/11/08 11:30:33;;;;;;;3.03;1.50;;;15.10;74.40;;;;;;4882475;29;20429;-75
2022/11/08 11:33:03;;;;;;;4.18;1.20;;;15.20;74.40;;;;;;4882438;29;20515;-76
2022/11/08 11:35:40;;;;;;;2.08;1.10;;;15.30;74.30;;;;;;4899490;29;20048;-76
2022/11/08 11:38:29;;;;;;;2.67;1.40;;;15.30;74.00;;;;;;4882651;29;20070;-76
2022/11/08 11:41:03;;;;;;;2.75;1.27;;;15.30;73.90;;;;;;4899299;29;20037;-76
2022/11/08 11:43:47;;;;;;;1.52;1.20;;;15.30;73.90;;;;;;4880414;29;20497;-76
2022/11/08 11:46:26;;;;;;;1.55;1.33;;;15.40;73.80;;;;;;4899245;29;20080;-75
2022/11/08 11:48:59;;;;;;;3.08;1.00;;;15.40;73.70;;;;;;4882400;29;20027;-76
2022/11/08 11:51:28;;;;;;;1.95;0.95;;;15.40;73.70;;;;;;4882235;29;20374;-76
2022/11/08 11:53:54;;;;;;;2.75;1.05;;;15.40;74.10;;;;;;4882019;29;20032;-76
2022/11/08 11:56:41;;;;;;;4.22;1.05;;;15.40;73.90;;;;;;4882191;29;20119;-76
2022/11/08 11:59:10;;;;;;;1.30;1.10;;;15.40;73.80;;;;;;4899030;29;20159;-76
2022/11/08 12:02:02;;;;;;;1.65;1.02;;;15.50;74.00;;;;;;4898900;29;20029;-75
2022/11/08 12:05:04;;;;;;;2.67;1.02;;;15.50;73.70;;;;;;4898904;29;20033;-75
2022/11/08 12:07:39;;;;;;;2.28;1.02;;;15.60;73.50;;;;;;4882079;29;20115;-76
2022/11/08 12:10:41;;;;;;;2.40;1.17;;;15.60;73.30;;;;;;4881896;29;20052;-78
2022/11/08 12:13:22;;;;;;;2.30;0.85;;;15.70;73.50;;;;;;4882356;29;20454;-75
2022/11/08 12:16:13;;;;;;;3.83;1.20;;;15.80;73.30;;;;;;4898835;29;20033;-76
2022/11/08 12:19:02;;;;;;;2.17;1.50;;;15.90;73.00;;;;;;4881939;29;20080;-75
2022/11/08 12:22:00;;;;;;;3.60;1.23;;;15.90;73.00;;;;;;4881687;29;20025;-75
2022/11/08 12:25:12;;;;;;;1.25;0.93;;;16.00;72.90;;;;;;4898704;29;20017;-75
2022/11/08 12:28:18;;;;;;;2.22;1.15;;;16.00;73.20;;;;;;4828285;29;20099;-76
2022/11/08 12:30:49;;;;;;;2.35;1.20;;;16.10;73.10;;;;;;4898639;29;20025;-76
2022/11/08 12:33:30;;;;;;;5.35;1.20;;;16.10;73.20;;;;;;4898579;29;20666;-76
2022/11/08 12:36:09;;;;;;;1.90;1.25;;;16.10;72.70;;;;;;4881648;29;20033;-76
2022/11/08 12:38:57;;;;;;;2.80;1.33;;;16.20;72.90;;;;;;4881712;29;20033;-76
2022/11/08 12:41:28;;;;;;;3.05;1.30;;;16.30;72.50;;;;;;4881544;29;20064;-76
2022/11/08 12:44:15;;;;;;;1.20;0.90;;;16.30;72.50;;;;;;4881216;29;20031;-76
2022/11/08 12:46:52;;;;;;;2.40;1.20;;;16.30;72.40;;;;;;4898390;29;20081;-76
2022/11/08 12:49:35;;;;;;;2.88;1.30;;;16.20;72.30;;;;;;4881254;29;20516;-75
2022/11/08 12:52:19;;;;;;;1.58;1.00;;;16.20;72.20;;;;;;4898093;29;20025;-75
2022/11/08 12:55:01;;;;;;;2.95;1.38;;;16.20;72.20;;;;;;4881163;29;20072;-76
2022/11/08 12:57:27;;;;;;;2.00;1.20;;;16.20;72.20;;;;;;4878428;29;20032;-76
2022/11/08 13:00:07;;;;;;;1.70;1.15;;;16.10;72.20;;;;;;4898012;29;20103;-76
2022/11/08 13:02:37;;;;;;;2.83;1.20;;;16.00;72.10;;;;;;4895039;29;20163;-76
2022/11/08 13:05:27;;;;;;;2.17;1.20;;;16.00;72.10;;;;;;4898042;29;20477;-76
2022/11/08 13:07:59;;;;;;;2.42;0.85;;;16.00;72.20;;;;;;4880514;29;20036;-75
2022/11/08 13:10:33;;;;;;;2.53;1.40;;;16.00;72.20;;;;;;4897621;29;20509;-75
2022/11/08 13:12:59;;;;;;;2.55;1.33;;;16.00;72.10;;;;;;4897858;29;20520;-77
2022/11/08 13:15:25;;;;;;;1.75;1.20;;;16.00;72.30;;;;;;4897682;29;20116;-77
2022/11/08 13:18:05;;;;;;;1.77;1.15;;;16.00;72.10;;;;;;4881023;29;20076;-76
2022/11/08 13:20:46;;;;;;;2.08;0.80;;;16.00;72.70;;;;;;4881310;29;20507;-75
2022/11/08 13:23:13;;;;;;;1.63;0.90;;;16.00;72.80;;;;;;4880757;29;20078;-75
2022/11/08 13:25:40;;;;;;;1.55;1.02;;;16.00;73.00;;;;;;4897678;29;20040;-76